sensor_id;sensor_type;location;lat;lon;timestamp;P1;durP1;ratioP1;P2;durP2;ratioP2
56730;SDS011;42613;47.424;8.560;2022-07-18T00:00:48;9.43;;;2.50;;
56730;SDS011;42613;47.424;8.560;2022-07-18T00:03:13;3.75;;;2.47;;
56730;SDS011;42613;47.424;8.560;2022-07-18T00:05:38;3.15;;;2.10;;
56730;SDS011;42613;47.424;8.560;2022-07-18T00:08:04;3.03;;;2.17;;
56730;SDS011;42613;47.424;8.560;2022-07-18T00:10:29;7.55;;;2.70;;
56730;SDS011;42613;47.424;8.560;2022-07-18T00:12:55;3.35;;;2.65;;
56730;SDS011;42613;47.424;8.560;2022-07-18T00:15:20;6.55;;;3.22;;
56730;SDS011;42613;47.424;8.560;2022-07-18T00:17:45;6.75;;;3.53;;
56730;SDS011;42613;47.424;8.560;2022-07-18T00:20:11;6.05;;;3.40;;
56730;SDS011;42613;47.424;8.560;2022-07-18T00:22:37;6.65;;;4.15;;
56730;SDS011;42613;47.424;8.560;2022-07-18T00:25:02;4.45;;;2.70;;
56730;SDS011;42613;47.424;8.560;2022-07-18T00:27:28;4.47;;;2.35;;
56730;SDS011;42613;47.424;8.560;2022-07-18T00:29:54;9.50;;;2.80;;
56730;SDS011;42613;47.424;8.560;2022-07-18T00:32:19;9.40;;;2.83;;
56730;SDS011;42613;47.424;8.560;2022-07-18T00:34:44;8.18;;;2.28;;
56730;SDS011;42613;47.424;8.560;2022-07-18T00:37:10;10.90;;;3.55;;
56730;SDS011;42613;47.424;8.560;2022-07-18T00:39:35;9.73;;;2.88;;
56730;SDS011;42613;47.424;8.560;2022-07-18T00:42:01;6.28;;;2.50;;
56730;SDS011;42613;47.424;8.560;2022-07-18T00:44:26;7.05;;;2.50;;
56730;SDS011;42613;47.424;8.560;2022-07-18T00:46:54;4.40;;;2.53;;
56730;SDS011;42613;47.424;8.560;2022-07-18T00:49:21;11.60;;;2.60;;
56730;SDS011;42613;47.424;8.560;2022-07-18T00:51:47;8.55;;;2.75;;
56730;SDS011;42613;47.424;8.560;2022-07-18T00:54:12;7.25;;;2.72;;
56730;SDS011;42613;47.424;8.560;2022-07-18T00:56:38;2.85;;;2.47;;
56730;SDS011;42613;47.424;8.560;2022-07-18T00:59:04;2.60;;;2.25;;
56730;SDS011;42613;47.424;8.560;2022-07-18T01:01:30;3.90;;;2.40;;
56730;SDS011;42613;47.424;8.560;2022-07-18T01:04:07;3.95;;;2.22;;
56730;SDS011;42613;47.424;8.560;2022-07-18T01:06:34;3.47;;;2.55;;
56730;SDS011;42613;47.424;8.560;2022-07-18T01:08:59;6.88;;;2.90;;
56730;SDS011;42613;47.424;8.560;2022-07-18T01:11:25;4.57;;;2.60;;
56730;SDS011;42613;47.424;8.560;2022-07-18T01:13:50;4.40;;;2.50;;
56730;SDS011;42613;47.424;8.560;2022-07-18T01:16:16;4.15;;;2.50;;
56730;SDS011;42613;47.424;8.560;2022-07-18T01:18:48;4.20;;;2.40;;
56730;SDS011;42613;47.424;8.560;2022-07-18T01:21:15;3.53;;;2.28;;
56730;SDS011;42613;47.424;8.560;2022-07-18T01:23:41;4.20;;;2.28;;
56730;SDS011;42613;47.424;8.560;2022-07-18T01:26:07;2.22;;;2.00;;
56730;SDS011;42613;47.424;8.560;2022-07-18T01:28:32;4.47;;;2.85;;
56730;SDS011;42613;47.424;8.560;2022-07-18T01:30:58;3.42;;;2.70;;
56730;SDS011;42613;47.424;8.560;2022-07-18T01:33:24;2.90;;;2.20;;
56730;SDS011;42613;47.424;8.560;2022-07-18T01:35:49;4.47;;;1.98;;
56730;SDS011;42613;47.424;8.560;2022-07-18T01:38:15;3.60;;;2.47;;
56730;SDS011;42613;47.424;8.560;2022-07-18T01:40:42;4.63;;;1.95;;
56730;SDS011;42613;47.424;8.560;2022-07-18T01:43:08;7.28;;;2.33;;
56730;SDS011;42613;47.424;8.560;2022-07-18T01:45:33;4.60;;;2.53;;
56730;SDS011;42613;47.424;8.560;2022-07-18T01:47:59;5.65;;;2.42;;
56730;SDS011;42613;47.424;8.560;2022-07-18T01:50:24;3.30;;;2.08;;
56730;SDS011;42613;47.424;8.560;2022-07-18T01:52:49;6.95;;;2.30;;
56730;SDS011;42613;47.424;8.560;2022-07-18T01:55:15;3.50;;;2.53;;
56730;SDS011;42613;47.424;8.560;2022-07-18T01:57:40;6.15;;;2.25;;
56730;SDS011;42613;47.424;8.560;2022-07-18T02:00:06;3.00;;;2.10;;
56730;SDS011;42613;47.424;8.560;2022-07-18T02:02:33;2.60;;;2.40;;
56730;SDS011;42613;47.424;8.560;2022-07-18T02:04:59;5.85;;;2.10;;
56730;SDS011;42613;47.424;8.560;2022-07-18T02:07:24;2.75;;;1.95;;
56730;SDS011;42613;47.424;8.560;2022-07-18T02:09:50;5.35;;;2.20;;
56730;SDS011;42613;47.424;8.560;2022-07-18T02:12:15;3.90;;;2.10;;
56730;SDS011;42613;47.424;8.560;2022-07-18T02:14:41;7.45;;;2.10;;
56730;SDS011;42613;47.424;8.560;2022-07-18T02:17:06;3.53;;;1.85;;
56730;SDS011;42613;47.424;8.560;2022-07-18T02:19:31;3.40;;;2.35;;
56730;SDS011;42613;47.424;8.560;2022-07-18T02:21:57;3.78;;;2.22;;
56730;SDS011;42613;47.424;8.560;2022-07-18T02:24:22;8.85;;;2.70;;
56730;SDS011;42613;47.424;8.560;2022-07-18T02:26:48;4.05;;;2.33;;
56730;SDS011;42613;47.424;8.560;2022-07-18T02:29:13;3.47;;;2.15;;
56730;SDS011;42613;47.424;8.560;2022-07-18T02:31:38;2.58;;;2.13;;
56730;SDS011;42613;47.424;8.560;2022-07-18T02:34:03;2.75;;;2.28;;
56730;SDS011;42613;47.424;8.560;2022-07-18T02:36:35;4.63;;;1.90;;
56730;SDS011;42613;47.424;8.560;2022-07-18T02:39:02;2.40;;;2.05;;
56730;SDS011;42613;47.424;8.560;2022-07-18T02:41:28;7.18;;;2.65;;
56730;SDS011;42613;47.424;8.560;2022-07-18T02:43:53;4.55;;;2.40;;
56730;SDS011;42613;47.424;8.560;2022-07-18T02:46:18;3.90;;;2.22;;
56730;SDS011;42613;47.424;8.560;2022-07-18T02:48:44;2.53;;;1.90;;
56730;SDS011;42613;47.424;8.560;2022-07-18T02:51:09;2.58;;;2.28;;
56730;SDS011;42613;47.424;8.560;2022-07-18T02:53:34;2.67;;;2.08;;
56730;SDS011;42613;47.424;8.560;2022-07-18T02:56:00;3.10;;;2.38;;
56730;SDS011;42613;47.424;8.560;2022-07-18T02:58:25;2.45;;;2.10;;
56730;SDS011;42613;47.424;8.560;2022-07-18T03:00:50;5.25;;;2.35;;
56730;SDS011;42613;47.424;8.560;2022-07-18T03:03:16;4.18;;;2.83;;
56730;SDS011;42613;47.424;8.560;2022-07-18T03:05:41;3.10;;;2.58;;
56730;SDS011;42613;47.424;8.560;2022-07-18T03:08:06;5.78;;;2.33;;
56730;SDS011;42613;47.424;8.560;2022-07-18T03:10:32;2.42;;;2.00;;
56730;SDS011;42613;47.424;8.560;2022-07-18T03:12:57;2.97;;;2.63;;
56730;SDS011;42613;47.424;8.560;2022-07-18T03:15:22;4.93;;;2.55;;
56730;SDS011;42613;47.424;8.560;2022-07-18T03:17:48;2.47;;;2.28;;
56730;SDS011;42613;47.424;8.560;2022-07-18T03:20:13;7.30;;;2.50;;
56730;SDS011;42613;47.424;8.560;2022-07-18T03:22:38;5.30;;;2.60;;
56730;SDS011;42613;47.424;8.560;2022-07-18T03:25:04;10.35;;;2.53;;
56730;SDS011;42613;47.424;8.560;2022-07-18T03:27:29;5.57;;;3.03;;
56730;SDS011;42613;47.424;8.560;2022-07-18T03:29:55;5.78;;;2.90;;
56730;SDS011;42613;47.424;8.560;2022-07-18T03:32:20;7.55;;;2.70;;
56730;SDS011;42613;47.424;8.560;2022-07-18T03:34:45;6.35;;;2.95;;
56730;SDS011;42613;47.424;8.560;2022-07-18T03:37:11;10.98;;;2.72;;
56730;SDS011;42613;47.424;8.560;2022-07-18T03:39:36;3.85;;;2.45;;
56730;SDS011;42613;47.424;8.560;2022-07-18T03:42:01;3.30;;;3.00;;
56730;SDS011;42613;47.424;8.560;2022-07-18T03:44:27;3.28;;;2.50;;
56730;SDS011;42613;47.424;8.560;2022-07-18T03:46:52;5.53;;;2.90;;
56730;SDS011;42613;47.424;8.560;2022-07-18T03:49:18;3.25;;;2.60;;
56730;SDS011;42613;47.424;8.560;2022-07-18T03:51:44;4.00;;;2.50;;
56730;SDS011;42613;47.424;8.560;2022-07-18T03:54:09;4.03;;;2.38;;
56730;SDS011;42613;47.424;8.560;2022-07-18T03:56:35;4.55;;;2.55;;
56730;SDS011;42613;47.424;8.560;2022-07-18T03:59:01;6.30;;;2.88;;
56730;SDS011;42613;47.424;8.560;2022-07-18T04:01:27;7.32;;;2.65;;
56730;SDS011;42613;47.424;8.560;2022-07-18T04:03:52;7.65;;;3.20;;
56730;SDS011;42613;47.424;8.560;2022-07-18T04:06:18;6.22;;;2.95;;
56730;SDS011;42613;47.424;8.560;2022-07-18T04:08:43;5.60;;;2.58;;
56730;SDS011;42613;47.424;8.560;2022-07-18T04:11:08;9.38;;;2.95;;
56730;SDS011;42613;47.424;8.560;2022-07-18T04:13:34;2.65;;;2.42;;
56730;SDS011;42613;47.424;8.560;2022-07-18T04:15:59;3.85;;;2.53;;
56730;SDS011;42613;47.424;8.560;2022-07-18T04:18:24;3.58;;;2.80;;
56730;SDS011;42613;47.424;8.560;2022-07-18T04:20:50;3.58;;;2.72;;
56730;SDS011;42613;47.424;8.560;2022-07-18T04:23:16;3.63;;;3.03;;
56730;SDS011;42613;47.424;8.560;2022-07-18T04:25:43;6.90;;;3.13;;
56730;SDS011;42613;47.424;8.560;2022-07-18T04:28:09;6.32;;;2.60;;
56730;SDS011;42613;47.424;8.560;2022-07-18T04:30:38;8.13;;;3.28;;
56730;SDS011;42613;47.424;8.560;2022-07-18T04:33:05;5.18;;;3.03;;
56730;SDS011;42613;47.424;8.560;2022-07-18T04:35:31;6.85;;;2.78;;
56730;SDS011;42613;47.424;8.560;2022-07-18T04:38:00;4.40;;;2.60;;
56730;SDS011;42613;47.424;8.560;2022-07-18T04:40:26;4.40;;;3.08;;
56730;SDS011;42613;47.424;8.560;2022-07-18T04:42:51;5.50;;;3.47;;
56730;SDS011;42613;47.424;8.560;2022-07-18T04:45:16;5.18;;;2.80;;
56730;SDS011;42613;47.424;8.560;2022-07-18T04:47:45;6.40;;;2.95;;
56730;SDS011;42613;47.424;8.560;2022-07-18T04:50:10;7.38;;;3.22;;
56730;SDS011;42613;47.424;8.560;2022-07-18T04:52:39;4.05;;;2.67;;
56730;SDS011;42613;47.424;8.560;2022-07-18T04:55:06;8.48;;;3.17;;
56730;SDS011;42613;47.424;8.560;2022-07-18T04:57:32;9.45;;;3.92;;
56730;SDS011;42613;47.424;8.560;2022-07-18T04:59:59;6.13;;;3.65;;
56730;SDS011;42613;47.424;8.560;2022-07-18T05:02:24;3.97;;;2.83;;
56730;SDS011;42613;47.424;8.560;2022-07-18T05:04:50;2.00;;;1.25;;
56730;SDS011;42613;47.424;8.560;2022-07-18T05:07:15;2.40;;;1.90;;
56730;SDS011;42613;47.424;8.560;2022-07-18T05:09:40;7.13;;;4.22;;
56730;SDS011;42613;47.424;8.560;2022-07-18T05:12:06;2.65;;;1.80;;
56730;SDS011;42613;47.424;8.560;2022-07-18T05:14:31;7.95;;;2.97;;
56730;SDS011;42613;47.424;8.560;2022-07-18T05:16:56;6.65;;;2.88;;
56730;SDS011;42613;47.424;8.560;2022-07-18T05:19:22;10.40;;;3.40;;
56730;SDS011;42613;47.424;8.560;2022-07-18T05:21:47;3.65;;;2.85;;
56730;SDS011;42613;47.424;8.560;2022-07-18T05:24:12;8.68;;;3.40;;
56730;SDS011;42613;47.424;8.560;2022-07-18T05:26:38;3.90;;;2.85;;
56730;SDS011;42613;47.424;8.560;2022-07-18T05:29:03;9.77;;;3.03;;
56730;SDS011;42613;47.424;8.560;2022-07-18T05:31:29;8.00;;;3.40;;
56730;SDS011;42613;47.424;8.560;2022-07-18T05:33:54;6.95;;;3.03;;
56730;SDS011;42613;47.424;8.560;2022-07-18T05:36:19;9.73;;;2.92;;
56730;SDS011;42613;47.424;8.560;2022-07-18T05:38:45;10.25;;;4.47;;
56730;SDS011;42613;47.424;8.560;2022-07-18T05:41:10;6.35;;;3.45;;
56730;SDS011;42613;47.424;8.560;2022-07-18T05:43:36;4.30;;;2.90;;
56730;SDS011;42613;47.424;8.560;2022-07-18T05:46:01;10.48;;;3.13;;
56730;SDS011;42613;47.424;8.560;2022-07-18T05:48:27;9.55;;;2.83;;
56730;SDS011;42613;47.424;8.560;2022-07-18T05:50:52;8.43;;;3.53;;
56730;SDS011;42613;47.424;8.560;2022-07-18T05:53:17;7.40;;;2.67;;
56730;SDS011;42613;47.424;8.560;2022-07-18T05:55:43;6.45;;;2.45;;
56730;SDS011;42613;47.424;8.560;2022-07-18T05:58:08;4.75;;;2.53;;
56730;SDS011;42613;47.424;8.560;2022-07-18T06:00:33;6.43;;;2.78;;
56730;SDS011;42613;47.424;8.560;2022-07-18T06:02:59;4.68;;;2.60;;
56730;SDS011;42613;47.424;8.560;2022-07-18T06:05:25;2.83;;;2.45;;
56730;SDS011;42613;47.424;8.560;2022-07-18T06:07:51;10.40;;;2.70;;
56730;SDS011;42613;47.424;8.560;2022-07-18T06:10:17;5.72;;;3.10;;
56730;SDS011;42613;47.424;8.560;2022-07-18T06:12:43;6.85;;;3.10;;
56730;SDS011;42613;47.424;8.560;2022-07-18T06:15:08;5.28;;;2.67;;
56730;SDS011;42613;47.424;8.560;2022-07-18T06:17:34;4.25;;;1.98;;
56730;SDS011;42613;47.424;8.560;2022-07-18T06:19:59;3.13;;;2.42;;
56730;SDS011;42613;47.424;8.560;2022-07-18T06:22:24;6.18;;;2.50;;
56730;SDS011;42613;47.424;8.560;2022-07-18T06:24:50;5.35;;;2.60;;
56730;SDS011;42613;47.424;8.560;2022-07-18T06:27:16;3.00;;;2.20;;
56730;SDS011;42613;47.424;8.560;2022-07-18T06:29:41;2.33;;;1.95;;
56730;SDS011;42613;47.424;8.560;2022-07-18T06:32:07;3.00;;;2.28;;
56730;SDS011;42613;47.424;8.560;2022-07-18T06:34:32;3.83;;;2.78;;
56730;SDS011;42613;47.424;8.560;2022-07-18T06:36:57;2.03;;;0.80;;
56730;SDS011;42613;47.424;8.560;2022-07-18T06:39:23;0.90;;;0.70;;
56730;SDS011;42613;47.424;8.560;2022-07-18T06:41:48;0.88;;;0.65;;
56730;SDS011;42613;47.424;8.560;2022-07-18T06:44:14;0.77;;;0.77;;
56730;SDS011;42613;47.424;8.560;2022-07-18T06:46:39;5.28;;;2.67;;
56730;SDS011;42613;47.424;8.560;2022-07-18T06:49:05;0.90;;;0.80;;
56730;SDS011;42613;47.424;8.560;2022-07-18T06:51:31;3.85;;;1.90;;
56730;SDS011;42613;47.424;8.560;2022-07-18T06:53:57;2.72;;;0.93;;
56730;SDS011;42613;47.424;8.560;2022-07-18T06:56:23;2.20;;;2.00;;
56730;SDS011;42613;47.424;8.560;2022-07-18T06:58:48;4.50;;;1.65;;
56730;SDS011;42613;47.424;8.560;2022-07-18T07:01:15;1.40;;;1.30;;
56730;SDS011;42613;47.424;8.560;2022-07-18T07:03:41;1.45;;;1.00;;
56730;SDS011;42613;47.424;8.560;2022-07-18T07:06:07;2.20;;;1.20;;
56730;SDS011;42613;47.424;8.560;2022-07-18T07:08:32;2.10;;;1.35;;
56730;SDS011;42613;47.424;8.560;2022-07-18T07:10:58;4.07;;;0.85;;
56730;SDS011;42613;47.424;8.560;2022-07-18T07:13:24;0.93;;;0.85;;
56730;SDS011;42613;47.424;8.560;2022-07-18T07:15:49;1.15;;;0.98;;
56730;SDS011;42613;47.424;8.560;2022-07-18T07:18:14;3.83;;;2.60;;
56730;SDS011;42613;47.424;8.560;2022-07-18T07:20:40;3.08;;;0.80;;
56730;SDS011;42613;47.424;8.560;2022-07-18T07:23:05;2.25;;;1.20;;
56730;SDS011;42613;47.424;8.560;2022-07-18T07:25:33;4.00;;;1.40;;
56730;SDS011;42613;47.424;8.560;2022-07-18T07:27:58;2.22;;;1.90;;
56730;SDS011;42613;47.424;8.560;2022-07-18T07:30:24;4.40;;;2.03;;
56730;SDS011;42613;47.424;8.560;2022-07-18T07:32:50;2.42;;;1.73;;
56730;SDS011;42613;47.424;8.560;2022-07-18T07:35:16;2.88;;;2.00;;
56730;SDS011;42613;47.424;8.560;2022-07-18T07:37:43;1.48;;;1.38;;
56730;SDS011;42613;47.424;8.560;2022-07-18T07:40:15;5.80;;;3.67;;
56730;SDS011;42613;47.424;8.560;2022-07-18T07:42:41;6.57;;;2.60;;
56730;SDS011;42613;47.424;8.560;2022-07-18T07:45:07;8.60;;;2.38;;
56730;SDS011;42613;47.424;8.560;2022-07-18T07:47:35;3.58;;;1.65;;
56730;SDS011;42613;47.424;8.560;2022-07-18T07:50:01;1.55;;;1.35;;
56730;SDS011;42613;47.424;8.560;2022-07-18T07:52:27;4.45;;;1.80;;
56730;SDS011;42613;47.424;8.560;2022-07-18T07:54:53;8.25;;;2.38;;
56730;SDS011;42613;47.424;8.560;2022-07-18T07:57:19;5.28;;;1.80;;
56730;SDS011;42613;47.424;8.560;2022-07-18T07:59:44;5.05;;;2.90;;
56730;SDS011;42613;47.424;8.560;2022-07-18T08:02:10;5.88;;;2.30;;
56730;SDS011;42613;47.424;8.560;2022-07-18T08:04:35;2.60;;;2.40;;
56730;SDS011;42613;47.424;8.560;2022-07-18T08:07:01;4.57;;;2.13;;
56730;SDS011;42613;47.424;8.560;2022-07-18T08:09:26;2.75;;;2.25;;
56730;SDS011;42613;47.424;8.560;2022-07-18T08:11:51;4.38;;;2.10;;
56730;SDS011;42613;47.424;8.560;2022-07-18T08:14:17;3.28;;;2.50;;
56730;SDS011;42613;47.424;8.560;2022-07-18T08:16:42;1.90;;;1.50;;
56730;SDS011;42613;47.424;8.560;2022-07-18T08:19:07;6.43;;;1.70;;
56730;SDS011;42613;47.424;8.560;2022-07-18T08:21:33;3.05;;;2.30;;
56730;SDS011;42613;47.424;8.560;2022-07-18T08:23:58;8.25;;;3.05;;
56730;SDS011;42613;47.424;8.560;2022-07-18T08:26:24;4.20;;;2.22;;
56730;SDS011;42613;47.424;8.560;2022-07-18T08:28:50;5.68;;;3.00;;
56730;SDS011;42613;47.424;8.560;2022-07-18T08:31:16;7.22;;;2.55;;
56730;SDS011;42613;47.424;8.560;2022-07-18T08:33:43;6.70;;;2.80;;
56730;SDS011;42613;47.424;8.560;2022-07-18T08:36:08;7.70;;;2.70;;
56730;SDS011;42613;47.424;8.560;2022-07-18T08:38:34;4.03;;;1.73;;
56730;SDS011;42613;47.424;8.560;2022-07-18T08:40:59;5.47;;;2.75;;
56730;SDS011;42613;47.424;8.560;2022-07-18T08:43:25;5.38;;;2.53;;
56730;SDS011;42613;47.424;8.560;2022-07-18T08:45:52;4.18;;;1.75;;
56730;SDS011;42613;47.424;8.560;2022-07-18T08:48:21;2.05;;;1.60;;
56730;SDS011;42613;47.424;8.560;2022-07-18T08:50:47;2.13;;;1.40;;
56730;SDS011;42613;47.424;8.560;2022-07-18T08:53:13;6.65;;;2.40;;
56730;SDS011;42613;47.424;8.560;2022-07-18T08:55:40;5.93;;;2.53;;
56730;SDS011;42613;47.424;8.560;2022-07-18T08:58:05;6.70;;;2.33;;
56730;SDS011;42613;47.424;8.560;2022-07-18T09:00:31;3.55;;;2.42;;
56730;SDS011;42613;47.424;8.560;2022-07-18T09:02:59;3.08;;;1.75;;
56730;SDS011;42613;47.424;8.560;2022-07-18T09:05:26;4.68;;;1.98;;
56730;SDS011;42613;47.424;8.560;2022-07-18T09:07:53;2.50;;;1.88;;
56730;SDS011;42613;47.424;8.560;2022-07-18T09:10:51;3.78;;;1.60;;
56730;SDS011;42613;47.424;8.560;2022-07-18T09:13:19;2.22;;;1.52;;
56730;SDS011;42613;47.424;8.560;2022-07-18T09:16:04;4.03;;;2.03;;
56730;SDS011;42613;47.424;8.560;2022-07-18T09:18:32;5.85;;;1.95;;
56730;SDS011;42613;47.424;8.560;2022-07-18T09:21:05;4.88;;;1.58;;
56730;SDS011;42613;47.424;8.560;2022-07-18T09:23:33;2.47;;;1.65;;
56730;SDS011;42613;47.424;8.560;2022-07-18T09:26:00;1.40;;;1.30;;
56730;SDS011;42613;47.424;8.560;2022-07-18T09:28:28;2.78;;;1.35;;
56730;SDS011;42613;47.424;8.560;2022-07-18T09:30:54;1.70;;;1.60;;
56730;SDS011;42613;47.424;8.560;2022-07-18T09:33:20;2.40;;;1.35;;
56730;SDS011;42613;47.424;8.560;2022-07-18T09:35:49;1.77;;;1.33;;
56730;SDS011;42613;47.424;8.560;2022-07-18T09:38:19;4.55;;;1.55;;
56730;SDS011;42613;47.424;8.560;2022-07-18T09:40:53;3.10;;;2.03;;
56730;SDS011;42613;47.424;8.560;2022-07-18T09:43:20;1.60;;;1.38;;
56730;SDS011;42613;47.424;8.560;2022-07-18T09:45:48;2.50;;;1.48;;
56730;SDS011;42613;47.424;8.560;2022-07-18T09:48:17;2.13;;;1.80;;
56730;SDS011;42613;47.424;8.560;2022-07-18T09:50:51;1.17;;;1.10;;
56730;SDS011;42613;47.424;8.560;2022-07-18T09:53:22;1.40;;;1.30;;
56730;SDS011;42613;47.424;8.560;2022-07-18T09:58:19;1.60;;;1.50;;
56730;SDS011;42613;47.424;8.560;2022-07-18T10:00:47;1.27;;;0.85;;
56730;SDS011;42613;47.424;8.560;2022-07-18T10:03:13;5.25;;;1.42;;
56730;SDS011;42613;47.424;8.560;2022-07-18T10:05:40;2.53;;;1.38;;
56730;SDS011;42613;47.424;8.560;2022-07-18T10:08:10;3.30;;;1.25;;
56730;SDS011;42613;47.424;8.560;2022-07-18T10:10:41;5.47;;;1.60;;
56730;SDS011;42613;47.424;8.560;2022-07-18T10:13:08;2.08;;;1.13;;
56730;SDS011;42613;47.424;8.560;2022-07-18T10:15:35;3.83;;;1.70;;
56730;SDS011;42613;47.424;8.560;2022-07-18T10:18:03;2.50;;;1.33;;
56730;SDS011;42613;47.424;8.560;2022-07-18T10:20:31;3.95;;;1.45;;
56730;SDS011;42613;47.424;8.560;2022-07-18T10:23:05;1.50;;;1.40;;
56730;SDS011;42613;47.424;8.560;2022-07-18T10:25:33;1.58;;;1.10;;
56730;SDS011;42613;47.424;8.560;2022-07-18T10:28:13;1.48;;;0.80;;
56730;SDS011;42613;47.424;8.560;2022-07-18T10:30:41;1.30;;;1.02;;
56730;SDS011;42613;47.424;8.560;2022-07-18T10:36:09;1.52;;;1.38;;
56730;SDS011;42613;47.424;8.560;2022-07-18T10:38:37;2.78;;;1.90;;
56730;SDS011;42613;47.424;8.560;2022-07-18T10:45:55;2.30;;;1.37;;
56730;SDS011;42613;47.424;8.560;2022-07-18T10:51:03;1.25;;;1.15;;
56730;SDS011;42613;47.424;8.560;2022-07-18T10:56:22;3.40;;;1.27;;
56730;SDS011;42613;47.424;8.560;2022-07-18T11:01:48;2.97;;;1.10;;
56730;SDS011;42613;47.424;8.560;2022-07-18T11:04:35;5.38;;;1.20;;
56730;SDS011;42613;47.424;8.560;2022-07-18T11:07:04;2.30;;;1.10;;
56730;SDS011;42613;47.424;8.560;2022-07-18T11:09:41;3.47;;;1.40;;
56730;SDS011;42613;47.424;8.560;2022-07-18T11:12:23;1.42;;;1.30;;
56730;SDS011;42613;47.424;8.560;2022-07-18T11:22:53;1.10;;;1.00;;
56730;SDS011;42613;47.424;8.560;2022-07-18T11:25:20;3.08;;;1.23;;
56730;SDS011;42613;47.424;8.560;2022-07-18T11:27:49;3.67;;;1.40;;
56730;SDS011;42613;47.424;8.560;2022-07-18T11:30:16;11.40;;;1.52;;
56730;SDS011;42613;47.424;8.560;2022-07-18T11:32:43;2.17;;;1.23;;
56730;SDS011;42613;47.424;8.560;2022-07-18T11:35:08;1.58;;;1.40;;
56730;SDS011;42613;47.424;8.560;2022-07-18T11:37:35;3.38;;;1.05;;
56730;SDS011;42613;47.424;8.560;2022-07-18T11:40:10;1.77;;;1.00;;
56730;SDS011;42613;47.424;8.560;2022-07-18T11:42:37;9.07;;;1.30;;
56730;SDS011;42613;47.424;8.560;2022-07-18T11:45:08;4.15;;;1.08;;
56730;SDS011;42613;47.424;8.560;2022-07-18T11:47:39;2.72;;;1.08;;
56730;SDS011;42613;47.424;8.560;2022-07-18T11:50:10;1.23;;;1.00;;
56730;SDS011;42613;47.424;8.560;2022-07-18T11:52:36;1.13;;;0.88;;
56730;SDS011;42613;47.424;8.560;2022-07-18T11:55:01;7.22;;;1.60;;
56730;SDS011;42613;47.424;8.560;2022-07-18T11:57:29;5.57;;;1.23;;
56730;SDS011;42613;47.424;8.560;2022-07-18T11:59:56;1.60;;;1.13;;
56730;SDS011;42613;47.424;8.560;2022-07-18T12:05:31;1.20;;;1.10;;
56730;SDS011;42613;47.424;8.560;2022-07-18T12:07:57;2.72;;;1.40;;
56730;SDS011;42613;47.424;8.560;2022-07-18T12:10:23;2.03;;;1.20;;
56730;SDS011;42613;47.424;8.560;2022-07-18T12:12:49;2.03;;;1.08;;
56730;SDS011;42613;47.424;8.560;2022-07-18T12:15:14;1.73;;;1.60;;
56730;SDS011;42613;47.424;8.560;2022-07-18T12:17:44;1.23;;;0.82;;
56730;SDS011;42613;47.424;8.560;2022-07-18T12:20:19;2.47;;;0.80;;
56730;SDS011;42613;47.424;8.560;2022-07-18T12:25:34;4.82;;;1.00;;
56730;SDS011;42613;47.424;8.560;2022-07-18T12:28:16;8.73;;;2.25;;
56730;SDS011;42613;47.424;8.560;2022-07-18T12:30:43;1.90;;;1.08;;
56730;SDS011;42613;47.424;8.560;2022-07-18T12:33:09;2.97;;;1.15;;
56730;SDS011;42613;47.424;8.560;2022-07-18T12:35:35;2.78;;;1.23;;
56730;SDS011;42613;47.424;8.560;2022-07-18T12:43:31;1.45;;;0.80;;
56730;SDS011;42613;47.424;8.560;2022-07-18T12:46:06;2.97;;;1.40;;
56730;SDS011;42613;47.424;8.560;2022-07-18T12:48:35;4.88;;;0.90;;
56730;SDS011;42613;47.424;8.560;2022-07-18T12:51:05;2.40;;;0.90;;
56730;SDS011;42613;47.424;8.560;2022-07-18T12:53:35;4.28;;;1.10;;
56730;SDS011;42613;47.424;8.560;2022-07-18T12:56:05;1.05;;;0.85;;
56730;SDS011;42613;47.424;8.560;2022-07-18T12:58:31;1.40;;;0.80;;
56730;SDS011;42613;47.424;8.560;2022-07-18T13:00:56;0.77;;;0.70;;
56730;SDS011;42613;47.424;8.560;2022-07-18T13:03:22;0.85;;;0.80;;
56730;SDS011;42613;47.424;8.560;2022-07-18T13:05:48;2.58;;;0.82;;
56730;SDS011;42613;47.424;8.560;2022-07-18T13:08:13;1.52;;;0.70;;
56730;SDS011;42613;47.424;8.560;2022-07-18T13:10:39;1.80;;;0.70;;
56730;SDS011;42613;47.424;8.560;2022-07-18T13:13:06;1.15;;;0.73;;
56730;SDS011;42613;47.424;8.560;2022-07-18T13:15:33;2.22;;;0.98;;
56730;SDS011;42613;47.424;8.560;2022-07-18T13:17:59;2.13;;;0.80;;
56730;SDS011;42613;47.424;8.560;2022-07-18T13:20:25;2.25;;;0.60;;
56730;SDS011;42613;47.424;8.560;2022-07-18T13:22:51;1.45;;;0.68;;
56730;SDS011;42613;47.424;8.560;2022-07-18T13:25:17;0.98;;;0.80;;
56730;SDS011;42613;47.424;8.560;2022-07-18T13:27:43;0.63;;;0.60;;
56730;SDS011;42613;47.424;8.560;2022-07-18T13:30:09;0.95;;;0.70;;
56730;SDS011;42613;47.424;8.560;2022-07-18T13:32:35;0.82;;;0.50;;
56730;SDS011;42613;47.424;8.560;2022-07-18T13:35:00;3.17;;;0.77;;
56730;SDS011;42613;47.424;8.560;2022-07-18T13:37:26;0.55;;;0.50;;
56730;SDS011;42613;47.424;8.560;2022-07-18T13:39:52;3.05;;;0.70;;
56730;SDS011;42613;47.424;8.560;2022-07-18T13:42:17;1.50;;;0.77;;
56730;SDS011;42613;47.424;8.560;2022-07-18T13:44:43;1.38;;;0.95;;
56730;SDS011;42613;47.424;8.560;2022-07-18T13:47:12;4.28;;;1.42;;
56730;SDS011;42613;47.424;8.560;2022-07-18T13:49:38;1.65;;;1.10;;
56730;SDS011;42613;47.424;8.560;2022-07-18T13:52:03;0.60;;;0.57;;
56730;SDS011;42613;47.424;8.560;2022-07-18T13:54:29;5.40;;;0.90;;
56730;SDS011;42613;47.424;8.560;2022-07-18T13:56:54;7.13;;;0.80;;
56730;SDS011;42613;47.424;8.560;2022-07-18T13:59:20;1.75;;;0.90;;
56730;SDS011;42613;47.424;8.560;2022-07-18T14:01:45;1.65;;;0.52;;
56730;SDS011;42613;47.424;8.560;2022-07-18T14:04:10;2.65;;;0.88;;
56730;SDS011;42613;47.424;8.560;2022-07-18T14:06:36;0.60;;;0.60;;
56730;SDS011;42613;47.424;8.560;2022-07-18T14:09:04;1.23;;;0.65;;
56730;SDS011;42613;47.424;8.560;2022-07-18T14:11:30;1.95;;;0.73;;
56730;SDS011;42613;47.424;8.560;2022-07-18T14:13:59;1.17;;;0.70;;
56730;SDS011;42613;47.424;8.560;2022-07-18T14:16:25;1.48;;;0.80;;
56730;SDS011;42613;47.424;8.560;2022-07-18T14:18:51;2.15;;;0.77;;
56730;SDS011;42613;47.424;8.560;2022-07-18T14:21:16;2.87;;;0.80;;
56730;SDS011;42613;47.424;8.560;2022-07-18T14:23:41;2.80;;;0.70;;
56730;SDS011;42613;47.424;8.560;2022-07-18T14:26:07;1.17;;;0.63;;
56730;SDS011;42613;47.424;8.560;2022-07-18T14:28:32;3.80;;;0.98;;
56730;SDS011;42613;47.424;8.560;2022-07-18T14:30:57;3.10;;;0.73;;
56730;SDS011;42613;47.424;8.560;2022-07-18T14:33:23;0.60;;;0.60;;
56730;SDS011;42613;47.424;8.560;2022-07-18T14:35:48;0.95;;;0.90;;
56730;SDS011;42613;47.424;8.560;2022-07-18T14:38:13;1.35;;;1.25;;
56730;SDS011;42613;47.424;8.560;2022-07-18T14:40:39;1.75;;;0.80;;
56730;SDS011;42613;47.424;8.560;2022-07-18T14:43:04;3.95;;;0.70;;
56730;SDS011;42613;47.424;8.560;2022-07-18T14:45:30;3.08;;;1.00;;
56730;SDS011;42613;47.424;8.560;2022-07-18T14:47:55;1.97;;;0.93;;
56730;SDS011;42613;47.424;8.560;2022-07-18T14:50:20;0.85;;;0.68;;
56730;SDS011;42613;47.424;8.560;2022-07-18T14:52:45;4.67;;;1.13;;
56730;SDS011;42613;47.424;8.560;2022-07-18T14:55:11;3.13;;;1.00;;
56730;SDS011;42613;47.424;8.560;2022-07-18T14:57:36;1.25;;;0.77;;
56730;SDS011;42613;47.424;8.560;2022-07-18T15:00:05;4.90;;;0.70;;
56730;SDS011;42613;47.424;8.560;2022-07-18T15:02:32;3.92;;;0.70;;
56730;SDS011;42613;47.424;8.560;2022-07-18T15:04:58;1.83;;;0.80;;
56730;SDS011;42613;47.424;8.560;2022-07-18T15:07:23;0.80;;;0.68;;
56730;SDS011;42613;47.424;8.560;2022-07-18T15:09:48;1.35;;;0.80;;
56730;SDS011;42613;47.424;8.560;2022-07-18T15:12:14;2.15;;;0.70;;
56730;SDS011;42613;47.424;8.560;2022-07-18T15:14:40;1.10;;;0.60;;
56730;SDS011;42613;47.424;8.560;2022-07-18T15:17:05;5.68;;;0.70;;
56730;SDS011;42613;47.424;8.560;2022-07-18T15:19:31;1.40;;;1.00;;
56730;SDS011;42613;47.424;8.560;2022-07-18T15:21:56;4.10;;;1.23;;